sensor_id;sensor_type;location;lat;lon;timestamp;P1;durP1;ratioP1;P2;durP2;ratioP2
36353;SDS011;22383;51.114;13.666;2022-10-16T00:01:16;3.53;;;1.13;;
36353;SDS011;22383;51.114;13.666;2022-10-16T00:03:46;2.15;;;1.70;;
36353;SDS011;22383;51.114;13.666;2022-10-16T00:06:14;1.98;;;1.70;;
36353;SDS011;22383;51.114;13.666;2022-10-16T00:08:44;2.90;;;1.75;;
36353;SDS011;22383;51.114;13.666;2022-10-16T00:11:13;1.95;;;1.08;;
36353;SDS011;22383;51.114;13.666;2022-10-16T00:13:43;3.65;;;1.92;;
36353;SDS011;22383;51.114;13.666;2022-10-16T00:16:12;5.18;;;2.05;;
36353;SDS011;22383;51.114;13.666;2022-10-16T00:18:40;3.00;;;1.92;;
36353;SDS011;22383;51.114;13.666;2022-10-16T00:21:16;5.68;;;1.55;;
36353;SDS011;22383;51.114;13.666;2022-10-16T00:23:45;5.15;;;1.70;;
36353;SDS011;22383;51.114;13.666;2022-10-16T00:26:14;7.95;;;2.28;;
36353;SDS011;22383;51.114;13.666;2022-10-16T00:28:47;2.60;;;1.58;;
36353;SDS011;22383;51.114;13.666;2022-10-16T00:31:16;1.17;;;1.08;;
36353;SDS011;22383;51.114;13.666;2022-10-16T00:33:45;1.55;;;1.27;;
36353;SDS011;22383;51.114;13.666;2022-10-16T00:36:14;0.88;;;0.88;;
36353;SDS011;22383;51.114;13.666;2022-10-16T00:38:43;2.42;;;1.38;;
36353;SDS011;22383;51.114;13.666;2022-10-16T00:41:11;2.00;;;1.40;;
36353;SDS011;22383;51.114;13.666;2022-10-16T00:54:17;1.50;;;0.88;;
36353;SDS011;22383;51.114;13.666;2022-10-16T00:56:55;1.10;;;1.00;;
36353;SDS011;22383;51.114;13.666;2022-10-16T00:59:40;1.33;;;1.23;;
36353;SDS011;22383;51.114;13.666;2022-10-16T01:02:11;3.33;;;1.58;;
36353;SDS011;22383;51.114;13.666;2022-10-16T01:04:48;2.17;;;1.15;;
36353;SDS011;22383;51.114;13.666;2022-10-16T01:15:17;2.53;;;2.00;;
36353;SDS011;22383;51.114;13.666;2022-10-16T01:20:42;4.88;;;2.08;;
36353;SDS011;22383;51.114;13.666;2022-10-16T01:31:11;3.08;;;1.10;;
36353;SDS011;22383;51.114;13.666;2022-10-16T01:33:46;2.70;;;0.65;;
36353;SDS011;22383;51.114;13.666;2022-10-16T01:36:24;1.02;;;0.73;;
36353;SDS011;22383;51.114;13.666;2022-10-16T01:38:56;0.80;;;0.80;;
36353;SDS011;22383;51.114;13.666;2022-10-16T01:41:30;2.65;;;0.98;;
36353;SDS011;22383;51.114;13.666;2022-10-16T01:44:34;1.40;;;1.30;;
36353;SDS011;22383;51.114;13.666;2022-10-16T01:46:59;4.43;;;2.17;;
36353;SDS011;22383;51.114;13.666;2022-10-16T01:49:29;4.57;;;1.75;;
36353;SDS011;22383;51.114;13.666;2022-10-16T01:51:59;2.55;;;2.17;;
36353;SDS011;22383;51.114;13.666;2022-10-16T01:54:31;5.00;;;2.15;;
36353;SDS011;22383;51.114;13.666;2022-10-16T01:57:01;3.25;;;2.00;;
36353;SDS011;22383;51.114;13.666;2022-10-16T01:59:30;3.25;;;1.63;;
36353;SDS011;22383;51.114;13.666;2022-10-16T02:02:04;1.15;;;0.98;;
36353;SDS011;22383;51.114;13.666;2022-10-16T02:04:45;3.80;;;1.77;;
36353;SDS011;22383;51.114;13.666;2022-10-16T02:07:20;2.85;;;0.95;;
36353;SDS011;22383;51.114;13.666;2022-10-16T02:09:47;4.28;;;1.83;;
36353;SDS011;22383;51.114;13.666;2022-10-16T02:12:15;5.53;;;0.93;;
36353;SDS011;22383;51.114;13.666;2022-10-16T02:14:54;2.13;;;1.75;;
36353;SDS011;22383;51.114;13.666;2022-10-16T02:17:22;2.35;;;1.15;;
36353;SDS011;22383;51.114;13.666;2022-10-16T02:19:50;1.02;;;0.85;;
36353;SDS011;22383;51.114;13.666;2022-10-16T02:22:28;1.08;;;1.02;;
36353;SDS011;22383;51.114;13.666;2022-10-16T02:25:01;2.65;;;1.65;;
36353;SDS011;22383;51.114;13.666;2022-10-16T02:27:34;0.55;;;0.55;;
36353;SDS011;22383;51.114;13.666;2022-10-16T02:33:02;1.95;;;1.08;;
36353;SDS011;22383;51.114;13.666;2022-10-16T02:35:33;3.97;;;1.77;;
36353;SDS011;22383;51.114;13.666;2022-10-16T02:38:01;1.48;;;1.35;;
36353;SDS011;22383;51.114;13.666;2022-10-16T02:40:28;8.75;;;1.60;;
36353;SDS011;22383;51.114;13.666;2022-10-16T02:42:56;1.85;;;1.17;;
36353;SDS011;22383;51.114;13.666;2022-10-16T02:45:28;2.63;;;2.42;;
36353;SDS011;22383;51.114;13.666;2022-10-16T02:47:56;4.22;;;2.00;;
36353;SDS011;22383;51.114;13.666;2022-10-16T02:50:23;2.53;;;0.93;;
36353;SDS011;22383;51.114;13.666;2022-10-16T02:52:51;6.20;;;1.17;;
36353;SDS011;22383;51.114;13.666;2022-10-16T02:55:19;3.83;;;1.58;;
36353;SDS011;22383;51.114;13.666;2022-10-16T02:57:46;1.83;;;1.27;;
36353;SDS011;22383;51.114;13.666;2022-10-16T03:00:15;5.00;;;1.92;;
36353;SDS011;22383;51.114;13.666;2022-10-16T03:02:43;2.33;;;2.13;;
36353;SDS011;22383;51.114;13.666;2022-10-16T03:05:11;2.65;;;1.63;;
36353;SDS011;22383;51.114;13.666;2022-10-16T03:07:38;3.33;;;1.05;;
36353;SDS011;22383;51.114;13.666;2022-10-16T03:10:06;0.77;;;0.75;;
36353;SDS011;22383;51.114;13.666;2022-10-16T03:12:34;1.48;;;1.38;;
36353;SDS011;22383;51.114;13.666;2022-10-16T03:15:01;2.13;;;1.38;;
36353;SDS011;22383;51.114;13.666;2022-10-16T03:17:29;1.55;;;1.15;;
36353;SDS011;22383;51.114;13.666;2022-10-16T03:19:56;2.90;;;2.35;;
36353;SDS011;22383;51.114;13.666;2022-10-16T03:22:24;2.28;;;2.03;;
36353;SDS011;22383;51.114;13.666;2022-10-16T03:24:51;4.32;;;1.73;;
36353;SDS011;22383;51.114;13.666;2022-10-16T03:27:18;1.17;;;1.10;;
36353;SDS011;22383;51.114;13.666;2022-10-16T03:29:46;2.10;;;2.00;;
36353;SDS011;22383;51.114;13.666;2022-10-16T03:32:13;1.90;;;1.80;;
36353;SDS011;22383;51.114;13.666;2022-10-16T03:34:40;2.30;;;1.65;;
36353;SDS011;22383;51.114;13.666;2022-10-16T03:37:08;5.43;;;2.42;;
36353;SDS011;22383;51.114;13.666;2022-10-16T03:39:35;1.73;;;1.27;;
36353;SDS011;22383;51.114;13.666;2022-10-16T03:42:03;2.25;;;1.73;;
36353;SDS011;22383;51.114;13.666;2022-10-16T03:44:30;2.00;;;1.00;;
36353;SDS011;22383;51.114;13.666;2022-10-16T03:46:57;3.75;;;1.98;;
36353;SDS011;22383;51.114;13.666;2022-10-16T03:49:25;1.52;;;0.77;;
36353;SDS011;22383;51.114;13.666;2022-10-16T03:51:52;4.28;;;1.60;;
36353;SDS011;22383;51.114;13.666;2022-10-16T03:54:19;1.58;;;1.33;;
36353;SDS011;22383;51.114;13.666;2022-10-16T03:56:47;8.50;;;1.48;;
36353;SDS011;22383;51.114;13.666;2022-10-16T03:59:14;2.05;;;1.20;;
36353;SDS011;22383;51.114;13.666;2022-10-16T04:01:41;8.20;;;2.08;;
36353;SDS011;22383;51.114;13.666;2022-10-16T04:04:08;3.35;;;2.45;;
36353;SDS011;22383;51.114;13.666;2022-10-16T04:06:36;2.42;;;1.35;;
36353;SDS011;22383;51.114;13.666;2022-10-16T04:09:04;1.27;;;1.23;;
36353;SDS011;22383;51.114;13.666;2022-10-16T04:11:31;2.83;;;1.65;;
36353;SDS011;22383;51.114;13.666;2022-10-16T04:13:59;2.85;;;2.08;;
36353;SDS011;22383;51.114;13.666;2022-10-16T04:16:26;2.05;;;1.38;;
36353;SDS011;22383;51.114;13.666;2022-10-16T04:18:53;1.35;;;1.25;;
36353;SDS011;22383;51.114;13.666;2022-10-16T04:21:21;1.88;;;1.67;;
36353;SDS011;22383;51.114;13.666;2022-10-16T04:23:49;3.15;;;1.75;;
36353;SDS011;22383;51.114;13.666;2022-10-16T04:26:16;5.03;;;2.92;;
36353;SDS011;22383;51.114;13.666;2022-10-16T04:28:43;4.18;;;2.33;;
36353;SDS011;22383;51.114;13.666;2022-10-16T04:31:11;1.45;;;1.00;;
36353;SDS011;22383;51.114;13.666;2022-10-16T04:33:38;0.93;;;0.63;;
36353;SDS011;22383;51.114;13.666;2022-10-16T04:36:06;4.45;;;1.80;;
36353;SDS011;22383;51.114;13.666;2022-10-16T04:38:33;2.70;;;1.83;;
36353;SDS011;22383;51.114;13.666;2022-10-16T04:41:00;3.92;;;1.95;;
36353;SDS011;22383;51.114;13.666;2022-10-16T04:43:31;5.88;;;1.67;;
36353;SDS011;22383;51.114;13.666;2022-10-16T04:45:58;1.42;;;1.33;;
36353;SDS011;22383;51.114;13.666;2022-10-16T04:48:26;9.00;;;2.40;;
36353;SDS011;22383;51.114;13.666;2022-10-16T04:50:53;0.43;;;0.43;;
36353;SDS011;22383;51.114;13.666;2022-10-16T04:55:49;2.55;;;1.85;;
36353;SDS011;22383;51.114;13.666;2022-10-16T04:58:17;1.48;;;1.23;;
36353;SDS011;22383;51.114;13.666;2022-10-16T05:00:45;2.05;;;1.08;;
36353;SDS011;22383;51.114;13.666;2022-10-16T05:03:13;2.70;;;1.50;;
36353;SDS011;22383;51.114;13.666;2022-10-16T05:05:44;3.22;;;1.98;;
36353;SDS011;22383;51.114;13.666;2022-10-16T05:08:13;1.75;;;1.50;;
36353;SDS011;22383;51.114;13.666;2022-10-16T05:10:41;2.10;;;1.73;;
36353;SDS011;22383;51.114;13.666;2022-10-16T05:13:09;1.48;;;1.38;;
36353;SDS011;22383;51.114;13.666;2022-10-16T05:18:04;0.95;;;0.95;;
36353;SDS011;22383;51.114;13.666;2022-10-16T05:20:32;2.00;;;1.83;;
36353;SDS011;22383;51.114;13.666;2022-10-16T05:22:59;1.67;;;1.58;;
36353;SDS011;22383;51.114;13.666;2022-10-16T05:25:27;1.38;;;1.23;;
36353;SDS011;22383;51.114;13.666;2022-10-16T05:27:54;2.13;;;0.82;;
36353;SDS011;22383;51.114;13.666;2022-10-16T05:30:21;0.98;;;0.95;;
36353;SDS011;22383;51.114;13.666;2022-10-16T05:32:49;0.60;;;0.60;;
36353;SDS011;22383;51.114;13.666;2022-10-16T05:35:18;1.13;;;1.10;;
36353;SDS011;22383;51.114;13.666;2022-10-16T05:37:46;2.25;;;1.48;;
36353;SDS011;22383;51.114;13.666;2022-10-16T05:40:15;7.40;;;2.97;;
36353;SDS011;22383;51.114;13.666;2022-10-16T05:42:43;9.77;;;1.67;;
36353;SDS011;22383;51.114;13.666;2022-10-16T05:45:11;2.67;;;1.67;;
36353;SDS011;22383;51.114;13.666;2022-10-16T05:47:39;4.03;;;1.92;;
36353;SDS011;22383;51.114;13.666;2022-10-16T05:50:06;3.60;;;1.38;;
36353;SDS011;22383;51.114;13.666;2022-10-16T05:52:34;1.88;;;1.50;;
36353;SDS011;22383;51.114;13.666;2022-10-16T05:55:01;1.77;;;1.67;;
36353;SDS011;22383;51.114;13.666;2022-10-16T05:57:29;1.83;;;1.73;;
36353;SDS011;22383;51.114;13.666;2022-10-16T05:59:57;2.05;;;1.23;;
36353;SDS011;22383;51.114;13.666;2022-10-16T06:02:24;2.20;;;1.40;;
36353;SDS011;22383;51.114;13.666;2022-10-16T06:04:52;1.42;;;1.33;;
36353;SDS011;22383;51.114;13.666;2022-10-16T06:07:21;2.13;;;1.52;;
36353;SDS011;22383;51.114;13.666;2022-10-16T06:09:50;0.45;;;0.45;;
36353;SDS011;22383;51.114;13.666;2022-10-16T06:12:19;1.92;;;1.65;;
36353;SDS011;22383;51.114;13.666;2022-10-16T06:17:14;3.10;;;0.95;;
36353;SDS011;22383;51.114;13.666;2022-10-16T06:22:09;2.33;;;1.65;;
36353;SDS011;22383;51.114;13.666;2022-10-16T06:24:36;0.93;;;0.85;;
36353;SDS011;22383;51.114;13.666;2022-10-16T06:27:04;3.20;;;1.55;;
36353;SDS011;22383;51.114;13.666;2022-10-16T06:29:31;0.90;;;0.80;;
36353;SDS011;22383;51.114;13.666;2022-10-16T06:31:59;1.23;;;1.15;;
36353;SDS011;22383;51.114;13.666;2022-10-16T06:34:26;2.92;;;1.55;;
36353;SDS011;22383;51.114;13.666;2022-10-16T06:36:54;2.25;;;1.42;;
36353;SDS011;22383;51.114;13.666;2022-10-16T06:39:22;2.72;;;1.35;;
36353;SDS011;22383;51.114;13.666;2022-10-16T06:41:49;0.68;;;0.68;;
36353;SDS011;22383;51.114;13.666;2022-10-16T06:44:17;1.63;;;1.42;;
36353;SDS011;22383;51.114;13.666;2022-10-16T06:46:44;0.82;;;0.70;;
36353;SDS011;22383;51.114;13.666;2022-10-16T06:49:11;1.27;;;0.85;;
36353;SDS011;22383;51.114;13.666;2022-10-16T06:51:38;7.93;;;1.95;;
36353;SDS011;22383;51.114;13.666;2022-10-16T06:54:09;4.38;;;1.67;;
36353;SDS011;22383;51.114;13.666;2022-10-16T06:56:37;1.70;;;1.25;;
36353;SDS011;22383;51.114;13.666;2022-10-16T06:59:04;2.05;;;1.27;;
36353;SDS011;22383;51.114;13.666;2022-10-16T07:01:31;1.10;;;1.10;;
36353;SDS011;22383;51.114;13.666;2022-10-16T07:04:00;1.55;;;1.08;;
36353;SDS011;22383;51.114;13.666;2022-10-16T07:06:30;1.13;;;1.02;;
36353;SDS011;22383;51.114;13.666;2022-10-16T07:09:00;1.17;;;0.75;;
36353;SDS011;22383;51.114;13.666;2022-10-16T07:11:29;0.45;;;0.45;;
36353;SDS011;22383;51.114;13.666;2022-10-16T07:13:57;0.20;;;0.20;;
36353;SDS011;22383;51.114;13.666;2022-10-16T07:16:26;1.55;;;0.20;;
36353;SDS011;22383;51.114;13.666;2022-10-16T07:18:55;0.88;;;0.88;;
36353;SDS011;22383;51.114;13.666;2022-10-16T07:21:28;0.47;;;0.47;;
36353;SDS011;22383;51.114;13.666;2022-10-16T07:24:02;1.00;;;0.50;;
36353;SDS011;22383;51.114;13.666;2022-10-16T07:26:35;0.55;;;0.52;;
36353;SDS011;22383;51.114;13.666;2022-10-16T07:29:03;0.25;;;0.25;;
36353;SDS011;22383;51.114;13.666;2022-10-16T07:31:31;0.68;;;0.68;;
36353;SDS011;22383;51.114;13.666;2022-10-16T07:33:59;0.30;;;0.30;;
36353;SDS011;22383;51.114;13.666;2022-10-16T07:36:27;0.40;;;0.40;;
36353;SDS011;22383;51.114;13.666;2022-10-16T07:41:26;0.52;;;0.52;;
36353;SDS011;22383;51.114;13.666;2022-10-16T07:51:17;1.45;;;0.68;;
36353;SDS011;22383;51.114;13.666;2022-10-16T07:53:46;0.70;;;0.57;;
36353;SDS011;22383;51.114;13.666;2022-10-16T07:56:14;0.47;;;0.43;;
36353;SDS011;22383;51.114;13.666;2022-10-16T07:58:43;1.02;;;0.63;;
36353;SDS011;22383;51.114;13.666;2022-10-16T08:01:11;1.35;;;0.52;;
36353;SDS011;22383;51.114;13.666;2022-10-16T08:03:58;1.27;;;0.98;;
36353;SDS011;22383;51.114;13.666;2022-10-16T08:06:26;0.85;;;0.77;;
36353;SDS011;22383;51.114;13.666;2022-10-16T08:11:22;0.28;;;0.28;;
36353;SDS011;22383;51.114;13.666;2022-10-16T08:13:50;4.57;;;0.95;;
36353;SDS011;22383;51.114;13.666;2022-10-16T08:16:17;1.75;;;1.27;;
36353;SDS011;22383;51.114;13.666;2022-10-16T08:18:44;4.07;;;0.47;;
36353;SDS011;22383;51.114;13.666;2022-10-16T08:23:47;0.20;;;0.20;;
36353;SDS011;22383;51.114;13.666;2022-10-16T08:26:23;1.00;;;0.70;;
36353;SDS011;22383;51.114;13.666;2022-10-16T08:28:50;0.10;;;0.10;;
36353;SDS011;22383;51.114;13.666;2022-10-16T08:31:18;0.55;;;0.47;;
36353;SDS011;22383;51.114;13.666;2022-10-16T08:33:46;1.15;;;0.40;;
36353;SDS011;22383;51.114;13.666;2022-10-16T08:36:15;0.38;;;0.32;;
36353;SDS011;22383;51.114;13.666;2022-10-16T08:38:43;0.22;;;0.22;;
36353;SDS011;22383;51.114;13.666;2022-10-16T08:49:36;1.45;;;0.98;;
36353;SDS011;22383;51.114;13.666;2022-10-16T08:52:12;5.90;;;1.30;;
36353;SDS011;22383;51.114;13.666;2022-10-16T08:54:41;0.70;;;0.70;;
36353;SDS011;22383;51.114;13.666;2022-10-16T08:57:14;1.13;;;0.90;;
36353;SDS011;22383;51.114;13.666;2022-10-16T08:59:51;0.45;;;0.45;;
36353;SDS011;22383;51.114;13.666;2022-10-16T09:07:53;2.40;;;1.15;;
36353;SDS011;22383;51.114;13.666;2022-10-16T09:13:25;0.73;;;0.68;;
36353;SDS011;22383;51.114;13.666;2022-10-16T09:18:45;1.60;;;0.98;;
36353;SDS011;22383;51.114;13.666;2022-10-16T09:21:23;0.10;;;0.10;;
36353;SDS011;22383;51.114;13.666;2022-10-16T09:23:54;0.10;;;0.10;;
36353;SDS011;22383;51.114;13.666;2022-10-16T09:26:26;0.30;;;0.30;;
36353;SDS011;22383;51.114;13.666;2022-10-16T09:28:53;1.25;;;0.50;;
36353;SDS011;22383;51.114;13.666;2022-10-16T09:31:21;0.80;;;0.30;;
36353;SDS011;22383;51.114;13.666;2022-10-16T09:33:53;1.00;;;0.52;;
36353;SDS011;22383;51.114;13.666;2022-10-16T09:36:25;1.08;;;0.68;;
36353;SDS011;22383;51.114;13.666;2022-10-16T09:39:04;3.63;;;1.58;;
36353;SDS011;22383;51.114;13.666;2022-10-16T09:41:35;0.20;;;0.20;;
36353;SDS011;22383;51.114;13.666;2022-10-16T09:44:12;0.20;;;0.20;;
36353;SDS011;22383;51.114;13.666;2022-10-16T09:47:00;0.30;;;0.30;;
36353;SDS011;22383;51.114;13.666;2022-10-16T09:49:49;0.98;;;0.47;;
36353;SDS011;22383;51.114;13.666;2022-10-16T09:52:18;0.65;;;0.60;;
36353;SDS011;22383;51.114;13.666;2022-10-16T09:57:22;1.13;;;0.22;;
36353;SDS011;22383;51.114;13.666;2022-10-16T09:59:52;0.40;;;0.40;;
36353;SDS011;22383;51.114;13.666;2022-10-16T10:02:28;0.13;;;0.13;;
36353;SDS011;22383;51.114;13.666;2022-10-16T10:04:59;0.30;;;0.20;;
36353;SDS011;22383;51.114;13.666;2022-10-16T10:07:28;1.48;;;0.60;;
36353;SDS011;22383;51.114;13.666;2022-10-16T10:10:03;0.13;;;0.13;;
36353;SDS011;22383;51.114;13.666;2022-10-16T10:12:32;0.10;;;0.10;;
36353;SDS011;22383;51.114;13.666;2022-10-16T10:15:12;0.10;;;0.10;;
36353;SDS011;22383;51.114;13.666;2022-10-16T10:17:48;0.38;;;0.38;;
36353;SDS011;22383;51.114;13.666;2022-10-16T10:23:13;0.10;;;0.10;;
36353;SDS011;22383;51.114;13.666;2022-10-16T10:25:49;0.20;;;0.20;;
36353;SDS011;22383;51.114;13.666;2022-10-16T10:31:38;0.63;;;0.63;;
36353;SDS011;22383;51.114;13.666;2022-10-16T10:34:26;0.08;;;0.08;;
36353;SDS011;22383;51.114;13.666;2022-10-16T10:40:04;0.10;;;0.10;;
36353;SDS011;22383;51.114;13.666;2022-10-16T10:42:43;0.10;;;0.10;;
36353;SDS011;22383;51.114;13.666;2022-10-16T10:45:28;0.30;;;0.30;;
36353;SDS011;22383;51.114;13.666;2022-10-16T10:48:47;0.00;;;0.00;;
36353;SDS011;22383;51.114;13.666;2022-10-16T10:51:11;0.00;;;0.00;;
36353;SDS011;22383;51.114;13.666;2022-10-16T10:59:19;0.10;;;0.10;;
36353;SDS011;22383;51.114;13.666;2022-10-16T11:04:50;0.35;;;0.35;;
36353;SDS011;22383;51.114;13.666;2022-10-16T11:07:42;0.22;;;0.20;;
36353;SDS011;22383;51.114;13.666;2022-10-16T11:10:18;0.00;;;0.00;;
36353;SDS011;22383;51.114;13.666;2022-10-16T11:16:21;0.10;;;0.10;;
36353;SDS011;22383;51.114;13.666;2022-10-16T11:24:35;0.00;;;0.00;;
36353;SDS011;22383;51.114;13.666;2022-10-16T11:27:08;0.10;;;0.10;;
36353;SDS011;22383;51.114;13.666;2022-10-16T11:29:47;0.10;;;0.10;;
36353;SDS011;22383;51.114;13.666;2022-10-16T11:32:36;0.20;;;0.20;;
36353;SDS011;22383;51.114;13.666;2022-10-16T11:36:08;0.00;;;0.00;;
36353;SDS011;22383;51.114;13.666;2022-10-16T11:41:12;0.10;;;0.10;;
36353;SDS011;22383;51.114;13.666;2022-10-16T11:43:49;0.30;;;0.13;;
36353;SDS011;22383;51.114;13.666;2022-10-16T11:46:25;0.00;;;0.00;;
36353;SDS011;22383;51.114;13.666;2022-10-16T11:48:57;0.10;;;0.10;;
36353;SDS011;22383;51.114;13.666;2022-10-16T11:51:36;0.13;;;0.13;;
36353;SDS011;22383;51.114;13.666;2022-10-16T11:57:02;0.10;;;0.10;;
36353;SDS011;22383;51.114;13.666;2022-10-16T12:00:25;0.05;;;0.05;;
36353;SDS011;22383;51.114;13.666;2022-10-16T12:05:22;0.10;;;0.10;;
36353;SDS011;22383;51.114;13.666;2022-10-16T12:08:01;0.03;;;0.03;;
36353;SDS011;22383;51.114;13.666;2022-10-16T12:10:29;0.20;;;0.20;;
36353;SDS011;22383;51.114;13.666;2022-10-16T12:12:59;0.00;;;0.00;;
36353;SDS011;22383;51.114;13.666;2022-10-16T12:15:27;0.35;;;0.35;;
36353;SDS011;22383;51.114;13.666;2022-10-16T12:18:23;0.00;;;0.00;;
36353;SDS011;22383;51.114;13.666;2022-10-16T12:20:58;0.13;;;0.10;;
36353;SDS011;22383;51.114;13.666;2022-10-16T12:23:32;0.40;;;0.10;;
36353;SDS011;22383;51.114;13.666;2022-10-16T12:26:03;0.10;;;0.10;;
36353;SDS011;22383;51.114;13.666;2022-10-16T12:28:32;0.10;;;0.10;;
36353;SDS011;22383;51.114;13.666;2022-10-16T12:31:04;0.32;;;0.20;;
36353;SDS011;22383;51.114;13.666;2022-10-16T12:33:33;0.22;;;0.20;;
36353;SDS011;22383;51.114;13.666;2022-10-16T12:36:37;0.00;;;0.00;;
36353;SDS011;22383;51.114;13.666;2022-10-16T12:39:01;0.32;;;0.32;;
36353;SDS011;22383;51.114;13.666;2022-10-16T12:41:30;6.15;;;1.42;;
36353;SDS011;22383;51.114;13.666;2022-10-16T12:44:02;0.30;;;0.30;;
36353;SDS011;22383;51.114;13.666;2022-10-16T12:51:55;0.10;;;0.10;;
36353;SDS011;22383;51.114;13.666;2022-10-16T13:00:04;1.02;;;0.80;;
36353;SDS011;22383;51.114;13.666;2022-10-16T13:05:29;0.13;;;0.10;;
36353;SDS011;22383;51.114;13.666;2022-10-16T13:13:45;0.25;;;0.25;;
36353;SDS011;22383;51.114;13.666;2022-10-16T13:27:40;0.20;;;0.20;;
36353;SDS011;22383;51.114;13.666;2022-10-16T13:30:38;0.22;;;0.22;;
36353;SDS011;22383;51.114;13.666;2022-10-16T13:36:03;0.20;;;0.20;;
36353;SDS011;22383;51.114;13.666;2022-10-16T13:38:35;0.00;;;0.00;;
36353;SDS011;22383;51.114;13.666;2022-10-16T13:41:04;0.00;;;0.00;;
36353;SDS011;22383;51.114;13.666;2022-10-16T13:43:40;0.03;;;0.03;;
36353;SDS011;22383;51.114;13.666;2022-10-16T13:46:21;0.05;;;0.05;;
36353;SDS011;22383;51.114;13.666;2022-10-16T13:48:57;0.10;;;0.10;;
36353;SDS011;22383;51.114;13.666;2022-10-16T13:51:32;0.75;;;0.25;;
36353;SDS011;22383;51.114;13.666;2022-10-16T13:54:00;0.10;;;0.10;;
36353;SDS011;22383;51.114;13.666;2022-10-16T13:56:31;0.95;;;0.52;;
36353;SDS011;22383;51.114;13.666;2022-10-16T13:59:06;0.30;;;0.30;;
36353;SDS011;22383;51.114;13.666;2022-10-16T14:01:49;0.25;;;0.25;;
36353;SDS011;22383;51.114;13.666;2022-10-16T14:04:22;0.85;;;0.50;;
36353;SDS011;22383;51.114;13.666;2022-10-16T14:06:57;0.50;;;0.50;;
36353;SDS011;22383;51.114;13.666;2022-10-16T14:09:28;0.10;;;0.10;;
36353;SDS011;22383;51.114;13.666;2022-10-16T14:12:01;0.20;;;0.20;;
36353;SDS011;22383;51.114;13.666;2022-10-16T14:14:34;0.20;;;0.20;;
36353;SDS011;22383;51.114;13.666;2022-10-16T14:17:43;0.60;;;0.20;;
36353;SDS011;22383;51.114;13.666;2022-10-16T14:20:04;0.10;;;0.10;;
36353;SDS011;22383;51.114;13.666;2022-10-16T14:22:34;0.10;;;0.10;;
36353;SDS011;22383;51.114;13.666;2022-10-16T14:25:26;0.45;;;0.45;;
36353;SDS011;22383;51.114;13.666;2022-10-16T14:30:33;0.10;;;0.10;;
36353;SDS011;22383;51.114;13.666;2022-10-16T14:33:18;0.08;;;0.08;;
36353;SDS011;22383;51.114;13.666;2022-10-16T14:36:01;0.10;;;0.10;;
36353;SDS011;22383;51.114;13.666;2022-10-16T14:38:35;0.17;;;0.17;;
36353;SDS011;22383;51.114;13.666;2022-10-16T14:41:05;0.10;;;0.10;;
36353;SDS011;22383;51.114;13.666;2022-10-16T14:43:33;0.10;;;0.10;;
36353;SDS011;22383;51.114;13.666;2022-10-16T14:46:09;0.45;;;0.30;;
36353;SDS011;22383;51.114;13.666;2022-10-16T14:48:43;0.20;;;0.20;;
36353;SDS011;22383;51.114;13.666;2022-10-16T14:51:14;0.10;;;0.10;;
36353;SDS011;22383;51.114;13.666;2022-10-16T14:53:42;0.10;;;0.10;;
36353;SDS011;22383;51.114;13.666;2022-10-16T14:56:17;0.10;;;0.10;;
36353;SDS011;22383;51.114;13.666;2022-10-16T14:58:46;0.10;;;0.10;;
36353;SDS011;22383;51.114;13.666;2022-10-16T15:01:14;0.10;;;0.10;;
36353;SDS011;22383;51.114;13.666;2022-10-16T15:03:42;0.25;;;0.25;;
36353;SDS011;22383;51.114;13.666;2022-10-16T15:06:13;0.10;;;0.10;;
36353;SDS011;22383;51.114;13.666;2022-10-16T15:08:42;0.10;;;0.10;;
36353;SDS011;22383;51.114;13.666;2022-10-16T15:11:11;0.10;;;0.10;;
36353;SDS011;22383;51.114;13.666;2022-10-16T15:13:40;0.05;;;0.05;;
36353;SDS011;22383;51.114;13.666;2022-10-16T15:16:10;0.10;;;0.10;;
36353;SDS011;22383;51.114;13.666;2022-10-16T15:18:39;0.28;;;0.20;;
36353;SDS011;22383;51.114;13.666;2022-10-16T15:21:06;4.45;;;1.27;;
36353;SDS011;22383;51.114;13.666;2022-10-16T15:23:34;0.10;;;0.10;;
36353;SDS011;22383;51.114;13.666;2022-10-16T15:26:01;0.10;;;0.10;;
36353;SDS011;22383;51.114;13.666;2022-10-16T15:28:28;0.10;;;0.10;;
36353;SDS011;22383;51.114;13.666;2022-10-16T15:30:56;0.20;;;0.20;;
36353;SDS011;22383;51.114;13.666;2022-10-16T15:33:25;0.43;;;0.20;;
36353;SDS011;22383;51.114;13.666;2022-10-16T15:36:05;2.00;;;0.28;;
36353;SDS011;22383;51.114;13.666;2022-10-16T15:38:33;0.10;;;0.10;;
36353;SDS011;22383;51.114;13.666;2022-10-16T15:41:01;0.10;;;0.10;;
36353;SDS011;22383;51.114;13.666;2022-10-16T15:43:28;0.10;;;0.10;;
36353;SDS011;22383;51.114;13.666;2022-10-16T15:46:00;0.10;;;0.10;;
36353;SDS011;22383;51.114;13.666;2022-10-16T15:48:32;0.10;;;0.10;;
36353;SDS011;22383;51.114;13.666;2022-10-16T15:53:31;0.55;;;0.17;;
36353;SDS011;22383;51.114;13.666;2022-10-16T15:56:00;0.10;;;0.10;;
36353;SDS011;22383;51.114;13.666;2022-10-16T15:58:29;1.48;;;0.52;;
36353;SDS011;22383;51.114;13.666;2022-10-16T16:00:57;0.20;;;0.20;;
36353;SDS011;22383;51.114;13.666;2022-10-16T16:03:28;0.10;;;0.10;;
36353;SDS011;22383;51.114;13.666;2022-10-16T16:05:55;0.10;;;0.10;;
36353;SDS011;22383;51.114;13.666;2022-10-16T16:08:22;0.20;;;0.20;;
36353;SDS011;22383;51.114;13.666;2022-10-16T16:13:27;0.20;;;0.20;;
36353;SDS011;22383;51.114;13.666;2022-10-16T16:15:55;0.20;;;0.20;;
36353;SDS011;22383;51.114;13.666;2022-10-16T16:18:22;0.47;;;0.47;;
36353;SDS011;22383;51.114;13.666;2022-10-16T16:20:51;0.10;;;0.10;;
36353;SDS011;22383;51.114;13.666;2022-10-16T16:23:19;0.20;;;0.20;;
36353;SDS011;22383;51.114;13.666;2022-10-16T16:28:29;0.10;;;0.10;;
36353;SDS011;22383;51.114;13.666;2022-10-16T16:30:57;0.25;;;0.25;;
36353;SDS011;22383;51.114;13.666;2022-10-16T16:33:24;5.97;;;1.38;;
36353;SDS011;22383;51.114;13.666;2022-10-16T16:35:55;0.10;;;0.10;;
36353;SDS011;22383;51.114;13.666;2022-10-16T16:38:27;0.10;;;0.10;;
36353;SDS011;22383;51.114;13.666;2022-10-16T16:40:55;0.10;;;0.10;;
36353;SDS011;22383;51.114;13.666;2022-10-16T16:43:23;0.13;;;0.13;;
36353;SDS011;22383;51.114;13.666;2022-10-16T16:45:52;0.40;;;0.40;;
36353;SDS011;22383;51.114;13.666;2022-10-16T16:48:20;0.00;;;0.00;;
36353;SDS011;22383;51.114;13.666;2022-10-16T16:50:48;0.20;;;0.20;;
36353;SDS011;22383;51.114;13.666;2022-10-16T16:53:16;0.30;;;0.30;;
36353;SDS011;22383;51.114;13.666;2022-10-16T16:55:43;0.30;;;0.30;;
36353;SDS011;22383;51.114;13.666;2022-10-16T16:58:11;0.32;;;0.22;;
36353;SDS011;22383;51.114;13.666;2022-10-16T17:03:28;0.70;;;0.40;;
36353;SDS011;22383;51.114;13.666;2022-10-16T17:06:04;0.40;;;0.40;;
36353;SDS011;22383;51.114;13.666;2022-10-16T17:08:34;0.88;;;0.60;;
36353;SDS011;22383;51.114;13.666;2022-10-16T17:11:02;0.20;;;0.20;;
36353;SDS011;22383;51.114;13.666;2022-10-16T17:13:32;0.40;;;0.30;;
36353;SDS011;22383;51.114;13.666;2022-10-16T17:16:03;0.75;;;0.55;;
36353;SDS011;22383;51.114;13.666;2022-10-16T17:18:31;1.38;;;1.10;;
36353;SDS011;22383;51.114;13.666;2022-10-16T17:21:04;0.45;;;0.45;;
36353;SDS011;22383;51.114;13.666;2022-10-16T17:23:34;0.30;;;0.30;;
36353;SDS011;22383;51.114;13.666;2022-10-16T17:26:12;0.43;;;0.40;;
36353;SDS011;22383;51.114;13.666;2022-10-16T17:28:41;1.85;;;0.40;;
36353;SDS011;22383;51.114;13.666;2022-10-16T17:31:16;0.30;;;0.30;;
36353;SDS011;22383;51.114;13.666;2022-10-16T17:33:46;0.20;;;0.20;;
36353;SDS011;22383;51.114;13.666;2022-10-16T17:36:13;5.88;;;1.48;;
36353;SDS011;22383;51.114;13.666;2022-10-16T17:38:41;0.10;;;0.10;;